Terminal Aerodrome Forecast
Issued by NWS Cleveland, OH

Home | Current Version | Previous Version | Text Only | Print | Product List | Glossary On
Versions: 1 2 3 4 5 6 7 8 9 10 11 12
000
FTUS41 KCLE 222323
TAFMFD
TAF
KMFD 222323Z 2300/2324 16011KT P6SM BKN200
     FM231200 16010KT P6SM BKN050
     FM231500 15015G25KT P6SM VCSH BKN030
     FM231900 17015G25KT 3SM -RA OVC009=

USA.gov is the U.S. government's official web portal to all federal, state and local government web resources and services.